sensor_id;sensor_type;location;lat;lon;timestamp;temperature;humidity
67131;HTU21D;54051;53.464;49.532;2023-03-18T00:02:07;4.21;79.14
67131;HTU21D;54051;53.464;49.532;2023-03-18T00:04:33;4.17;79.59
67131;HTU21D;54051;53.464;49.532;2023-03-18T00:07:00;4.15;79.77
67131;HTU21D;54051;53.464;49.532;2023-03-18T00:09:26;4.18;79.76
67131;HTU21D;54051;53.464;49.532;2023-03-18T00:11:53;4.26;79.27
67131;HTU21D;54051;53.464;49.532;2023-03-18T00:14:19;4.27;79.37
67131;HTU21D;54051;53.464;49.532;2023-03-18T00:16:45;4.20;79.59
67131;HTU21D;54051;53.464;49.532;2023-03-18T00:19:11;4.20;79.59
67131;HTU21D;54051;53.464;49.532;2023-03-18T00:21:37;4.23;79.91
67131;HTU21D;54051;53.464;49.532;2023-03-18T00:24:04;4.23;79.83
67131;HTU21D;54051;53.464;49.532;2023-03-18T00:26:30;4.28;79.75
67131;HTU21D;54051;53.464;49.532;2023-03-18T00:28:57;4.31;79.53
67131;HTU21D;54051;53.464;49.532;2023-03-18T00:31:24;4.35;79.32
67131;HTU21D;54051;53.464;49.532;2023-03-18T00:33:51;4.32;79.75
67131;HTU21D;54051;53.464;49.532;2023-03-18T00:36:17;4.38;79.30
67131;HTU21D;54051;53.464;49.532;2023-03-18T00:38:51;4.38;79.31
67131;HTU21D;54051;53.464;49.532;2023-03-18T00:41:29;4.39;79.30
67131;HTU21D;54051;53.464;49.532;2023-03-18T00:43:58;4.39;79.37
67131;HTU21D;54051;53.464;49.532;2023-03-18T00:46:26;4.32;79.54
67131;HTU21D;54051;53.464;49.532;2023-03-18T00:48:55;4.31;79.91
67131;HTU21D;54051;53.464;49.532;2023-03-18T00:51:23;4.31;79.77
67131;HTU21D;54051;53.464;49.532;2023-03-18T00:53:53;4.32;79.90
67131;HTU21D;54051;53.464;49.532;2023-03-18T00:56:21;4.37;79.59
67131;HTU21D;54051;53.464;49.532;2023-03-18T00:58:49;4.29;79.93
67131;HTU21D;54051;53.464;49.532;2023-03-18T01:01:17;4.24;80.25
67131;HTU21D;54051;53.464;49.532;2023-03-18T01:03:45;4.30;79.84
67131;HTU21D;54051;53.464;49.532;2023-03-18T01:06:18;4.36;79.76
67131;HTU21D;54051;53.464;49.532;2023-03-18T01:08:45;4.39;79.32
67131;HTU21D;54051;53.464;49.532;2023-03-18T01:11:11;4.45;79.15
67131;HTU21D;54051;53.464;49.532;2023-03-18T01:13:38;4.48;78.94
67131;HTU21D;54051;53.464;49.532;2023-03-18T01:16:06;4.48;78.98
67131;HTU21D;54051;53.464;49.532;2023-03-18T01:18:34;4.44;79.24
67131;HTU21D;54051;53.464;49.532;2023-03-18T01:21:02;4.33;79.55
67131;HTU21D;54051;53.464;49.532;2023-03-18T01:23:28;4.29;79.54
67131;HTU21D;54051;53.464;49.532;2023-03-18T01:25:55;4.22;79.27
67131;HTU21D;54051;53.464;49.532;2023-03-18T01:28:22;4.20;79.65
67131;HTU21D;54051;53.464;49.532;2023-03-18T01:30:49;4.18;79.30
67131;HTU21D;54051;53.464;49.532;2023-03-18T01:33:15;4.12;79.45
67131;HTU21D;54051;53.464;49.532;2023-03-18T01:35:42;4.13;79.41
67131;HTU21D;54051;53.464;49.532;2023-03-18T01:38:08;4.06;79.47
67131;HTU21D;54051;53.464;49.532;2023-03-18T01:40:36;3.92;79.87
67131;HTU21D;54051;53.464;49.532;2023-03-18T01:43:14;3.97;79.73
67131;HTU21D;54051;53.464;49.532;2023-03-18T01:45:54;3.99;79.38
67131;HTU21D;54051;53.464;49.532;2023-03-18T01:48:22;3.99;79.03
67131;HTU21D;54051;53.464;49.532;2023-03-18T01:51:00;4.02;78.86
67131;HTU21D;54051;53.464;49.532;2023-03-18T01:53:35;3.97;78.56
67131;HTU21D;54051;53.464;49.532;2023-03-18T01:56:02;3.90;78.64
67131;HTU21D;54051;53.464;49.532;2023-03-18T01:58:35;3.92;78.30
67131;HTU21D;54051;53.464;49.532;2023-03-18T02:01:10;3.93;77.95
67131;HTU21D;54051;53.464;49.532;2023-03-18T02:03:39;3.87;77.78
67131;HTU21D;54051;53.464;49.532;2023-03-18T02:06:07;3.88;78.11
67131;HTU21D;54051;53.464;49.532;2023-03-18T02:08:33;3.89;77.54
67131;HTU21D;54051;53.464;49.532;2023-03-18T02:10:59;3.94;77.19
67131;HTU21D;54051;53.464;49.532;2023-03-18T02:13:25;3.98;76.89
67131;HTU21D;54051;53.464;49.532;2023-03-18T02:16:01;3.94;76.57
67131;HTU21D;54051;53.464;49.532;2023-03-18T02:18:48;3.89;76.76
67131;HTU21D;54051;53.464;49.532;2023-03-18T02:21:36;3.87;76.98
67131;HTU21D;54051;53.464;49.532;2023-03-18T02:24:26;3.86;76.60
67131;HTU21D;54051;53.464;49.532;2023-03-18T02:29:38;3.83;76.38
67131;HTU21D;54051;53.464;49.532;2023-03-18T02:32:07;3.74;76.74
67131;HTU21D;54051;53.464;49.532;2023-03-18T02:34:34;3.75;76.76
67131;HTU21D;54051;53.464;49.532;2023-03-18T02:37:02;3.82;76.17
67131;HTU21D;54051;53.464;49.532;2023-03-18T02:39:28;3.83;76.20
67131;HTU21D;54051;53.464;49.532;2023-03-18T02:41:56;3.79;76.19
67131;HTU21D;54051;53.464;49.532;2023-03-18T02:44:22;3.82;76.31
67131;HTU21D;54051;53.464;49.532;2023-03-18T02:46:55;3.84;76.12
67131;HTU21D;54051;53.464;49.532;2023-03-18T02:49:23;3.90;75.92
67131;HTU21D;54051;53.464;49.532;2023-03-18T02:51:53;3.90;75.71
67131;HTU21D;54051;53.464;49.532;2023-03-18T02:54:22;3.89;75.83
67131;HTU21D;54051;53.464;49.532;2023-03-18T02:56:49;3.89;75.53
67131;HTU21D;54051;53.464;49.532;2023-03-18T02:59:16;3.85;75.87
67131;HTU21D;54051;53.464;49.532;2023-03-18T03:01:43;3.80;76.02
67131;HTU21D;54051;53.464;49.532;2023-03-18T03:04:10;3.78;76.31
67131;HTU21D;54051;53.464;49.532;2023-03-18T03:06:37;3.77;76.23
67131;HTU21D;54051;53.464;49.532;2023-03-18T03:09:04;3.84;76.12
67131;HTU21D;54051;53.464;49.532;2023-03-18T03:11:31;3.86;75.81
67131;HTU21D;54051;53.464;49.532;2023-03-18T03:13:57;3.85;75.84
67131;HTU21D;54051;53.464;49.532;2023-03-18T03:16:24;3.80;75.86
67131;HTU21D;54051;53.464;49.532;2023-03-18T03:18:50;3.84;75.90
67131;HTU21D;54051;53.464;49.532;2023-03-18T03:21:16;3.77;76.05
67131;HTU21D;54051;53.464;49.532;2023-03-18T03:23:44;3.80;75.98
67131;HTU21D;54051;53.464;49.532;2023-03-18T03:26:11;3.79;75.99
67131;HTU21D;54051;53.464;49.532;2023-03-18T03:28:37;3.82;76.07
67131;HTU21D;54051;53.464;49.532;2023-03-18T03:31:03;3.76;76.12
67131;HTU21D;54051;53.464;49.532;2023-03-18T03:33:29;3.73;76.35
67131;HTU21D;54051;53.464;49.532;2023-03-18T03:35:56;3.79;76.02
67131;HTU21D;54051;53.464;49.532;2023-03-18T03:38:22;3.77;76.04
67131;HTU21D;54051;53.464;49.532;2023-03-18T03:41:10;3.77;75.91
67131;HTU21D;54051;53.464;49.532;2023-03-18T03:43:38;3.73;75.89
67131;HTU21D;54051;53.464;49.532;2023-03-18T03:46:04;3.75;76.20
67131;HTU21D;54051;53.464;49.532;2023-03-18T03:48:30;3.78;75.66
67131;HTU21D;54051;53.464;49.532;2023-03-18T03:50:56;3.82;75.42
67131;HTU21D;54051;53.464;49.532;2023-03-18T03:53:23;3.84;75.65
67131;HTU21D;54051;53.464;49.532;2023-03-18T03:55:50;3.83;75.33
67131;HTU21D;54051;53.464;49.532;2023-03-18T03:58:16;3.78;75.47
67131;HTU21D;54051;53.464;49.532;2023-03-18T04:00:43;3.71;75.82
67131;HTU21D;54051;53.464;49.532;2023-03-18T04:03:09;3.73;75.47
67131;HTU21D;54051;53.464;49.532;2023-03-18T04:05:36;3.64;75.95
67131;HTU21D;54051;53.464;49.532;2023-03-18T04:08:02;3.75;75.50
67131;HTU21D;54051;53.464;49.532;2023-03-18T04:10:29;3.76;75.42
67131;HTU21D;54051;53.464;49.532;2023-03-18T04:12:55;3.73;75.47
67131;HTU21D;54051;53.464;49.532;2023-03-18T04:15:21;3.75;75.22
67131;HTU21D;54051;53.464;49.532;2023-03-18T04:17:48;3.76;75.42
67131;HTU21D;54051;53.464;49.532;2023-03-18T04:20:15;3.88;74.99
67131;HTU21D;54051;53.464;49.532;2023-03-18T04:22:43;3.92;74.74
67131;HTU21D;54051;53.464;49.532;2023-03-18T04:25:10;3.99;74.33
67131;HTU21D;54051;53.464;49.532;2023-03-18T04:27:37;3.97;74.40
67131;HTU21D;54051;53.464;49.532;2023-03-18T04:30:05;3.99;74.25
67131;HTU21D;54051;53.464;49.532;2023-03-18T04:32:32;3.94;74.41
67131;HTU21D;54051;53.464;49.532;2023-03-18T04:34:59;3.87;74.83
67131;HTU21D;54051;53.464;49.532;2023-03-18T04:37:25;3.89;74.60
67131;HTU21D;54051;53.464;49.532;2023-03-18T04:39:51;3.87;74.82
67131;HTU21D;54051;53.464;49.532;2023-03-18T04:42:17;3.94;74.54
67131;HTU21D;54051;53.464;49.532;2023-03-18T04:44:44;3.92;74.52
67131;HTU21D;54051;53.464;49.532;2023-03-18T04:47:10;3.89;74.47
67131;HTU21D;54051;53.464;49.532;2023-03-18T04:49:37;3.91;74.44
67131;HTU21D;54051;53.464;49.532;2023-03-18T04:52:04;3.86;74.57
67131;HTU21D;54051;53.464;49.532;2023-03-18T04:54:30;3.87;74.50
67131;HTU21D;54051;53.464;49.532;2023-03-18T04:56:56;3.86;74.60
67131;HTU21D;54051;53.464;49.532;2023-03-18T04:59:22;3.82;74.55
67131;HTU21D;54051;53.464;49.532;2023-03-18T05:01:48;3.85;74.58
67131;HTU21D;54051;53.464;49.532;2023-03-18T05:04:14;3.92;74.24
67131;HTU21D;54051;53.464;49.532;2023-03-18T05:06:41;3.87;74.25
67131;HTU21D;54051;53.464;49.532;2023-03-18T05:09:07;3.92;74.32
67131;HTU21D;54051;53.464;49.532;2023-03-18T05:11:34;3.94;73.96
67131;HTU21D;54051;53.464;49.532;2023-03-18T05:14:00;3.97;74.17
67131;HTU21D;54051;53.464;49.532;2023-03-18T05:16:27;4.02;73.74
67131;HTU21D;54051;53.464;49.532;2023-03-18T05:18:54;3.98;74.09
67131;HTU21D;54051;53.464;49.532;2023-03-18T05:21:20;3.98;73.99
67131;HTU21D;54051;53.464;49.532;2023-03-18T05:23:46;4.00;73.87
67131;HTU21D;54051;53.464;49.532;2023-03-18T05:26:13;4.00;73.89
67131;HTU21D;54051;53.464;49.532;2023-03-18T05:28:39;3.99;73.84
67131;HTU21D;54051;53.464;49.532;2023-03-18T05:31:05;3.88;74.18
67131;HTU21D;54051;53.464;49.532;2023-03-18T05:33:32;3.93;74.28
67131;HTU21D;54051;53.464;49.532;2023-03-18T05:35:58;3.91;74.37
67131;HTU21D;54051;53.464;49.532;2023-03-18T05:38:24;4.00;74.15
67131;HTU21D;54051;53.464;49.532;2023-03-18T05:40:51;4.05;73.77
67131;HTU21D;54051;53.464;49.532;2023-03-18T05:43:17;4.03;73.48
67131;HTU21D;54051;53.464;49.532;2023-03-18T05:45:43;3.93;74.06
67131;HTU21D;54051;53.464;49.532;2023-03-18T05:48:09;3.98;74.03
67131;HTU21D;54051;53.464;49.532;2023-03-18T05:50:41;4.03;73.53
67131;HTU21D;54051;53.464;49.532;2023-03-18T05:53:08;4.12;73.03
67131;HTU21D;54051;53.464;49.532;2023-03-18T05:55:37;4.09;73.09
67131;HTU21D;54051;53.464;49.532;2023-03-18T05:58:05;4.07;73.44
67131;HTU21D;54051;53.464;49.532;2023-03-18T06:00:32;4.18;72.72
67131;HTU21D;54051;53.464;49.532;2023-03-18T06:02:58;4.32;72.46
67131;HTU21D;54051;53.464;49.532;2023-03-18T06:05:25;4.53;71.28
67131;HTU21D;54051;53.464;49.532;2023-03-18T06:07:52;4.65;71.11
67131;HTU21D;54051;53.464;49.532;2023-03-18T06:10:20;4.69;70.58
67131;HTU21D;54051;53.464;49.532;2023-03-18T06:12:48;4.69;70.74
67131;HTU21D;54051;53.464;49.532;2023-03-18T06:15:14;4.79;70.34
67131;HTU21D;54051;53.464;49.532;2023-03-18T06:17:40;4.81;70.17
67131;HTU21D;54051;53.464;49.532;2023-03-18T06:20:08;4.74;70.50
67131;HTU21D;54051;53.464;49.532;2023-03-18T06:22:37;4.72;70.51
67131;HTU21D;54051;53.464;49.532;2023-03-18T06:25:04;4.65;70.62
67131;HTU21D;54051;53.464;49.532;2023-03-18T06:27:33;4.65;70.30
67131;HTU21D;54051;53.464;49.532;2023-03-18T06:30:00;4.47;71.07
67131;HTU21D;54051;53.464;49.532;2023-03-18T06:32:29;4.41;71.55
67131;HTU21D;54051;53.464;49.532;2023-03-18T06:34:56;4.45;71.32
67131;HTU21D;54051;53.464;49.532;2023-03-18T06:37:22;4.51;70.97
67131;HTU21D;54051;53.464;49.532;2023-03-18T06:39:48;4.49;70.93
67131;HTU21D;54051;53.464;49.532;2023-03-18T06:42:14;4.44;71.05
67131;HTU21D;54051;53.464;49.532;2023-03-18T06:44:40;4.33;71.38
67131;HTU21D;54051;53.464;49.532;2023-03-18T06:47:19;4.34;71.64
67131;HTU21D;54051;53.464;49.532;2023-03-18T06:49:46;4.39;71.16
67131;HTU21D;54051;53.464;49.532;2023-03-18T06:52:12;4.32;71.58
67131;HTU21D;54051;53.464;49.532;2023-03-18T06:54:39;4.47;71.21
67131;HTU21D;54051;53.464;49.532;2023-03-18T06:57:06;4.48;70.99
67131;HTU21D;54051;53.464;49.532;2023-03-18T06:59:33;4.47;70.97
67131;HTU21D;54051;53.464;49.532;2023-03-18T07:01:59;4.41;71.43
67131;HTU21D;54051;53.464;49.532;2023-03-18T07:04:25;4.43;71.23
67131;HTU21D;54051;53.464;49.532;2023-03-18T07:06:51;4.47;71.34
67131;HTU21D;54051;53.464;49.532;2023-03-18T07:09:17;4.52;70.96
67131;HTU21D;54051;53.464;49.532;2023-03-18T07:11:44;4.46;71.17
67131;HTU21D;54051;53.464;49.532;2023-03-18T07:14:13;4.43;71.09
67131;HTU21D;54051;53.464;49.532;2023-03-18T07:16:39;4.53;71.01
67131;HTU21D;54051;53.464;49.532;2023-03-18T07:19:06;4.56;70.49
67131;HTU21D;54051;53.464;49.532;2023-03-18T07:21:32;4.60;70.13
67131;HTU21D;54051;53.464;49.532;2023-03-18T07:23:58;4.59;70.21
67131;HTU21D;54051;53.464;49.532;2023-03-18T07:26:25;4.61;70.23
67131;HTU21D;54051;53.464;49.532;2023-03-18T07:28:51;4.65;69.99
67131;HTU21D;54051;53.464;49.532;2023-03-18T07:31:17;4.58;70.30
67131;HTU21D;54051;53.464;49.532;2023-03-18T07:33:43;4.53;70.70
67131;HTU21D;54051;53.464;49.532;2023-03-18T07:36:09;4.61;69.79
67131;HTU21D;54051;53.464;49.532;2023-03-18T07:38:35;4.52;70.43
67131;HTU21D;54051;53.464;49.532;2023-03-18T07:41:01;4.61;70.07
67131;HTU21D;54051;53.464;49.532;2023-03-18T07:43:27;4.56;70.12
67131;HTU21D;54051;53.464;49.532;2023-03-18T07:45:53;4.53;70.41
67131;HTU21D;54051;53.464;49.532;2023-03-18T07:48:20;4.49;70.53
67131;HTU21D;54051;53.464;49.532;2023-03-18T07:50:46;4.32;70.87
67131;HTU21D;54051;53.464;49.532;2023-03-18T07:53:12;4.34;71.06
67131;HTU21D;54051;53.464;49.532;2023-03-18T07:55:38;4.37;70.96
67131;HTU21D;54051;53.464;49.532;2023-03-18T07:58:06;4.28;71.48
67131;HTU21D;54051;53.464;49.532;2023-03-18T08:00:33;4.19;71.61
67131;HTU21D;54051;53.464;49.532;2023-03-18T08:03:00;4.22;71.63
67131;HTU21D;54051;53.464;49.532;2023-03-18T08:05:26;4.08;71.93
67131;HTU21D;54051;53.464;49.532;2023-03-18T08:07:52;4.03;72.29
67131;HTU21D;54051;53.464;49.532;2023-03-18T08:10:19;4.01;72.39
67131;HTU21D;54051;53.464;49.532;2023-03-18T08:12:45;3.97;72.82
67131;HTU21D;54051;53.464;49.532;2023-03-18T08:15:11;4.10;72.12
67131;HTU21D;54051;53.464;49.532;2023-03-18T08:17:38;4.22;71.50
67131;HTU21D;54051;53.464;49.532;2023-03-18T08:20:04;4.18;71.95
67131;HTU21D;54051;53.464;49.532;2023-03-18T08:22:31;4.06;72.35
67131;HTU21D;54051;53.464;49.532;2023-03-18T08:24:57;4.16;72.52
67131;HTU21D;54051;53.464;49.532;2023-03-18T08:27:23;4.09;72.35
67131;HTU21D;54051;53.464;49.532;2023-03-18T08:29:50;4.03;72.89
67131;HTU21D;54051;53.464;49.532;2023-03-18T08:32:16;4.02;73.40
67131;HTU21D;54051;53.464;49.532;2023-03-18T08:34:42;4.13;72.99
67131;HTU21D;54051;53.464;49.532;2023-03-18T08:37:09;4.20;73.57
67131;HTU21D;54051;53.464;49.532;2023-03-18T08:39:35;4.21;74.20
67131;HTU21D;54051;53.464;49.532;2023-03-18T08:42:02;4.18;74.24
67131;HTU21D;54051;53.464;49.532;2023-03-18T08:44:29;4.33;73.80
67131;HTU21D;54051;53.464;49.532;2023-03-18T08:46:55;4.36;73.70
67131;HTU21D;54051;53.464;49.532;2023-03-18T08:49:23;4.28;74.57
67131;HTU21D;54051;53.464;49.532;2023-03-18T08:51:50;4.31;75.41
67131;HTU21D;54051;53.464;49.532;2023-03-18T08:54:18;4.44;74.93
67131;HTU21D;54051;53.464;49.532;2023-03-18T08:56:44;4.35;74.93
67131;HTU21D;54051;53.464;49.532;2023-03-18T08:59:10;4.43;74.59
67131;HTU21D;54051;53.464;49.532;2023-03-18T09:01:36;4.31;75.51
67131;HTU21D;54051;53.464;49.532;2023-03-18T09:04:02;4.10;76.05
67131;HTU21D;54051;53.464;49.532;2023-03-18T09:06:29;4.01;77.50
67131;HTU21D;54051;53.464;49.532;2023-03-18T09:08:55;4.00;77.09
67131;HTU21D;54051;53.464;49.532;2023-03-18T09:11:21;3.87;77.69
67131;HTU21D;54051;53.464;49.532;2023-03-18T09:13:47;3.83;78.24
67131;HTU21D;54051;53.464;49.532;2023-03-18T09:16:13;3.78;78.81
67131;HTU21D;54051;53.464;49.532;2023-03-18T09:18:39;3.75;77.92
67131;HTU21D;54051;53.464;49.532;2023-03-18T09:21:06;3.65;78.59
67131;HTU21D;54051;53.464;49.532;2023-03-18T09:23:32;3.63;78.59
67131;HTU21D;54051;53.464;49.532;2023-03-18T09:25:59;3.63;78.85
67131;HTU21D;54051;53.464;49.532;2023-03-18T09:28:25;3.61;80.06
67131;HTU21D;54051;53.464;49.532;2023-03-18T09:30:51;3.69;79.37
67131;HTU21D;54051;53.464;49.532;2023-03-18T09:33:18;3.60;79.12
67131;HTU21D;54051;53.464;49.532;2023-03-18T09:35:45;3.44;80.00
67131;HTU21D;54051;53.464;49.532;2023-03-18T09:38:16;3.43;80.03
67131;HTU21D;54051;53.464;49.532;2023-03-18T09:43:43;3.44;79.99
67131;HTU21D;54051;53.464;49.532;2023-03-18T09:52:25;3.28;80.62
67131;HTU21D;54051;53.464;49.532;2023-03-18T09:55:02;3.25;80.82
67131;HTU21D;54051;53.464;49.532;2023-03-18T09:57:34;3.25;80.40
67131;HTU21D;54051;53.464;49.532;2023-03-18T10:02:54;3.18;80.82
67131;HTU21D;54051;53.464;49.532;2023-03-18T10:05:31;3.09;80.93
67131;HTU21D;54051;53.464;49.532;2023-03-18T10:08:07;2.99;81.72
67131;HTU21D;54051;53.464;49.532;2023-03-18T10:10:41;2.89;81.98
67131;HTU21D;54051;53.464;49.532;2023-03-18T10:13:22;2.79;82.81
67131;HTU21D;54051;53.464;49.532;2023-03-18T10:15:56;2.82;82.72
67131;HTU21D;54051;53.464;49.532;2023-03-18T10:18:31;2.83;82.92
67131;HTU21D;54051;53.464;49.532;2023-03-18T10:26:48;2.99;81.90
67131;HTU21D;54051;53.464;49.532;2023-03-18T10:29:40;3.00;81.92
67131;HTU21D;54051;53.464;49.532;2023-03-18T10:38:02;3.01;81.71
67131;HTU21D;54051;53.464;49.532;2023-03-18T10:40:34;3.05;81.70
67131;HTU21D;54051;53.464;49.532;2023-03-18T10:43:02;3.12;81.94
67131;HTU21D;54051;53.464;49.532;2023-03-18T10:45:31;3.11;81.46
67131;HTU21D;54051;53.464;49.532;2023-03-18T10:48:03;3.04;81.66
67131;HTU21D;54051;53.464;49.532;2023-03-18T10:50:32;3.03;81.84
67131;HTU21D;54051;53.464;49.532;2023-03-18T10:55:47;3.09;81.97
67131;HTU21D;54051;53.464;49.532;2023-03-18T10:58:16;3.14;81.49
67131;HTU21D;54051;53.464;49.532;2023-03-18T11:00:42;3.11;81.20
67131;HTU21D;54051;53.464;49.532;2023-03-18T11:03:22;3.11;81.39
67131;HTU21D;54051;53.464;49.532;2023-03-18T11:05:49;3.10;81.69
67131;HTU21D;54051;53.464;49.532;2023-03-18T11:08:37;3.21;81.59
67131;HTU21D;54051;53.464;49.532;2023-03-18T11:13:50;3.26;81.12
67131;HTU21D;54051;53.464;49.532;2023-03-18T11:16:57;3.21;81.36
67131;HTU21D;54051;53.464;49.532;2023-03-18T11:24:32;3.21;81.27
67131;HTU21D;54051;53.464;49.532;2023-03-18T11:29:49;3.18;81.23
67131;HTU21D;54051;53.464;49.532;2023-03-18T11:32:25;3.19;81.78
67131;HTU21D;54051;53.464;49.532;2023-03-18T11:35:22;3.25;81.11
67131;HTU21D;54051;53.464;49.532;2023-03-18T11:37:49;3.26;80.32
67131;HTU21D;54051;53.464;49.532;2023-03-18T11:40:22;3.14;81.43
67131;HTU21D;54051;53.464;49.532;2023-03-18T11:43:01;3.25;82.02
67131;HTU21D;54051;53.464;49.532;2023-03-18T11:48:17;3.42;80.79
67131;HTU21D;54051;53.464;49.532;2023-03-18T11:53:36;3.38;79.99
67131;HTU21D;54051;53.464;49.532;2023-03-18T12:10:23;3.47;80.35
67131;HTU21D;54051;53.464;49.532;2023-03-18T12:13:16;3.48;79.93
67131;HTU21D;54051;53.464;49.532;2023-03-18T12:18:45;3.40;79.92
67131;HTU21D;54051;53.464;49.532;2023-03-18T12:24:44;3.25;80.99
67131;HTU21D;54051;53.464;49.532;2023-03-18T12:27:22;3.23;80.53
67131;HTU21D;54051;53.464;49.532;2023-03-18T12:30:07;3.19;81.13
67131;HTU21D;54051;53.464;49.532;2023-03-18T12:32:40;3.25;80.97
67131;HTU21D;54051;53.464;49.532;2023-03-18T12:43:27;3.12;81.33
67131;HTU21D;54051;53.464;49.532;2023-03-18T12:46:03;3.10;81.75
67131;HTU21D;54051;53.464;49.532;2023-03-18T12:48:36;3.15;81.52
67131;HTU21D;54051;53.464;49.532;2023-03-18T12:51:14;3.18;81.26
67131;HTU21D;54051;53.464;49.532;2023-03-18T12:53:44;3.14;81.59
67131;HTU21D;54051;53.464;49.532;2023-03-18T12:56:39;3.12;81.71
67131;HTU21D;54051;53.464;49.532;2023-03-18T12:59:11;3.05;81.59
67131;HTU21D;54051;53.464;49.532;2023-03-18T13:01:51;3.03;81.84
67131;HTU21D;54051;53.464;49.532;2023-03-18T13:04:21;2.96;82.14
67131;HTU21D;54051;53.464;49.532;2023-03-18T13:07:00;2.95;81.91
67131;HTU21D;54051;53.464;49.532;2023-03-18T13:09:57;2.99;81.43
67131;HTU21D;54051;53.464;49.532;2023-03-18T13:12:31;2.94;82.08
67131;HTU21D;54051;53.464;49.532;2023-03-18T13:15:01;2.97;82.25
67131;HTU21D;54051;53.464;49.532;2023-03-18T13:17:38;2.98;81.18
67131;HTU21D;54051;53.464;49.532;2023-03-18T13:27:52;2.95;81.72
67131;HTU21D;54051;53.464;49.532;2023-03-18T13:36:26;2.97;81.37
67131;HTU21D;54051;53.464;49.532;2023-03-18T13:44:17;2.80;82.20
67131;HTU21D;54051;53.464;49.532;2023-03-18T13:46:57;2.78;82.23
67131;HTU21D;54051;53.464;49.532;2023-03-18T13:49:28;2.78;82.26
67131;HTU21D;54051;53.464;49.532;2023-03-18T13:51:57;2.84;82.04
67131;HTU21D;54051;53.464;49.532;2023-03-18T13:54:32;2.76;81.44
67131;HTU21D;54051;53.464;49.532;2023-03-18T13:57:33;2.70;81.52
67131;HTU21D;54051;53.464;49.532;2023-03-18T14:06:17;2.61;81.75
67131;HTU21D;54051;53.464;49.532;2023-03-18T14:16:09;2.42;82.42
67131;HTU21D;54051;53.464;49.532;2023-03-18T14:18:36;2.41;82.34
67131;HTU21D;54051;53.464;49.532;2023-03-18T14:21:04;2.44;82.33
67131;HTU21D;54051;53.464;49.532;2023-03-18T14:26:16;2.34;81.39
67131;HTU21D;54051;53.464;49.532;2023-03-18T14:28:47;2.34;80.58
67131;HTU21D;54051;53.464;49.532;2023-03-18T14:31:19;2.25;80.88
67131;HTU21D;54051;53.464;49.532;2023-03-18T14:33:57;2.26;80.02
67131;HTU21D;54051;53.464;49.532;2023-03-18T14:37:03;2.28;79.82
67131;HTU21D;54051;53.464;49.532;2023-03-18T14:39:38;2.20;80.24
67131;HTU21D;54051;53.464;49.532;2023-03-18T14:42:26;2.19;80.39
67131;HTU21D;54051;53.464;49.532;2023-03-18T14:44:56;2.20;80.17
67131;HTU21D;54051;53.464;49.532;2023-03-18T14:47:47;2.10;80.96
67131;HTU21D;54051;53.464;49.532;2023-03-18T14:50:36;2.16;81.17
67131;HTU21D;54051;53.464;49.532;2023-03-18T14:55:37;2.16;81.09
67131;HTU21D;54051;53.464;49.532;2023-03-18T14:58:04;2.10;81.80
67131;HTU21D;54051;53.464;49.532;2023-03-18T15:00:34;2.10;81.83
67131;HTU21D;54051;53.464;49.532;2023-03-18T15:03:05;2.08;81.97
67131;HTU21D;54051;53.464;49.532;2023-03-18T15:05:35;2.11;82.40
67131;HTU21D;54051;53.464;49.532;2023-03-18T15:08:07;2.08;81.90
67131;HTU21D;54051;53.464;49.532;2023-03-18T15:10:34;2.05;81.49
67131;HTU21D;54051;53.464;49.532;2023-03-18T15:13:04;2.12;81.23
67131;HTU21D;54051;53.464;49.532;2023-03-18T15:15:34;2.06;81.20
67131;HTU21D;54051;53.464;49.532;2023-03-18T15:21:15;1.97;81.57
67131;HTU21D;54051;53.464;49.532;2023-03-18T15:23:50;1.95;81.63
67131;HTU21D;54051;53.464;49.532;2023-03-18T15:28:56;1.92;81.20
67131;HTU21D;54051;53.464;49.532;2023-03-18T15:31:24;1.93;80.94
67131;HTU21D;54051;53.464;49.532;2023-03-18T15:36:44;1.87;80.71
67131;HTU21D;54051;53.464;49.532;2023-03-18T15:39:28;1.88;80.34
67131;HTU21D;54051;53.464;49.532;2023-03-18T15:41:57;1.88;80.78
67131;HTU21D;54051;53.464;49.532;2023-03-18T15:44:28;1.83;80.25
67131;HTU21D;54051;53.464;49.532;2023-03-18T15:47:02;1.80;80.80
67131;HTU21D;54051;53.464;49.532;2023-03-18T15:49:28;1.78;80.84
67131;HTU21D;54051;53.464;49.532;2023-03-18T15:52:01;1.77;80.82
67131;HTU21D;54051;53.464;49.532;2023-03-18T15:54:47;1.71;81.20
67131;HTU21D;54051;53.464;49.532;2023-03-18T15:57:29;1.75;81.28
67131;HTU21D;54051;53.464;49.532;2023-03-18T16:00:02;1.68;80.48
67131;HTU21D;54051;53.464;49.532;2023-03-18T16:02:32;1.68;80.92
67131;HTU21D;54051;53.464;49.532;2023-03-18T16:05:24;1.76;80.32
67131;HTU21D;54051;53.464;49.532;2023-03-18T16:08:17;1.72;80.14
67131;HTU21D;54051;53.464;49.532;2023-03-18T16:10:46;1.71;79.81
67131;HTU21D;54051;53.464;49.532;2023-03-18T16:13:20;1.69;80.11
67131;HTU21D;54051;53.464;49.532;2023-03-18T16:15:48;1.75;79.98
67131;HTU21D;54051;53.464;49.532;2023-03-18T16:18:14;1.77;79.74
67131;HTU21D;54051;53.464;49.532;2023-03-18T16:20:43;1.75;79.17
67131;HTU21D;54051;53.464;49.532;2023-03-18T16:23:11;1.75;78.82
67131;HTU21D;54051;53.464;49.532;2023-03-18T16:25:38;1.75;78.37
67131;HTU21D;54051;53.464;49.532;2023-03-18T16:28:04;1.73;78.59
67131;HTU21D;54051;53.464;49.532;2023-03-18T16:30:31;1.69;77.85
67131;HTU21D;54051;53.464;49.532;2023-03-18T16:32:58;1.67;78.21
67131;HTU21D;54051;53.464;49.532;2023-03-18T16:35:28;1.68;77.89
67131;HTU21D;54051;53.464;49.532;2023-03-18T16:37:55;1.75;76.50
67131;HTU21D;54051;53.464;49.532;2023-03-18T16:40:26;1.76;76.69
67131;HTU21D;54051;53.464;49.532;2023-03-18T16:42:53;1.76;75.84
67131;HTU21D;54051;53.464;49.532;2023-03-18T16:45:24;1.70;75.79
67131;HTU21D;54051;53.464;49.532;2023-03-18T16:47:55;1.69;75.10
67131;HTU21D;54051;53.464;49.532;2023-03-18T16:50:26;1.70;75.76
67131;HTU21D;54051;53.464;49.532;2023-03-18T16:52:54;1.76;74.72
67131;HTU21D;54051;53.464;49.532;2023-03-18T16:55:20;1.66;75.08
67131;HTU21D;54051;53.464;49.532;2023-03-18T16:57:52;1.69;74.34
67131;HTU21D;54051;53.464;49.532;2023-03-18T17:00:27;1.73;73.65
67131;HTU21D;54051;53.464;49.532;2023-03-18T17:03:00;1.68;74.31
67131;HTU21D;54051;53.464;49.532;2023-03-18T17:05:27;1.73;73.40
67131;HTU21D;54051;53.464;49.532;2023-03-18T17:07:54;1.78;73.61
67131;HTU21D;54051;53.464;49.532;2023-03-18T17:10:22;1.78;72.95
67131;HTU21D;54051;53.464;49.532;2023-03-18T17:12:53;1.73;73.37
67131;HTU21D;54051;53.464;49.532;2023-03-18T17:15:27;1.69;72.26
67131;HTU21D;54051;53.464;49.532;2023-03-18T17:17:54;1.68;72.62
67131;HTU21D;54051;53.464;49.532;2023-03-18T17:20:24;1.63;72.42
67131;HTU21D;54051;53.464;49.532;2023-03-18T17:22:52;1.68;72.35
67131;HTU21D;54051;53.464;49.532;2023-03-18T17:25:19;1.70;72.60
67131;HTU21D;54051;53.464;49.532;2023-03-18T17:27:53;1.77;71.87
67131;HTU21D;54051;53.464;49.532;2023-03-18T17:30:36;1.67;72.06
67131;HTU21D;54051;53.464;49.532;2023-03-18T17:33:03;1.70;71.61